Time;durP1;ratioP1;P1;durP2;ratioP2;P2;SDS_P1;SDS_P2;PMS_P1;PMS_P2;Temp;Humidity;BMP_temperature;BMP_pressure;BME280_temperature;BME280_humidity;BME280_pressure;Samples;Min_cycle;Max_cycle;Signal;HPM_P1;HPM_P2
2021/01/27 00:00:50;;;;;;;14.13;13.13;;;0.40;99.90;;;;;;5050715;28;20555;-80
2021/01/27 00:03:17;;;;;;;14.27;13.07;;;0.40;99.90;;;;;;5044662;28;20450;-79
2021/01/27 00:05:46;;;;;;;14.23;13.00;;;0.40;99.90;;;;;;5050502;28;20897;-80
2021/01/27 00:08:13;;;;;;;13.73;12.73;;;0.40;99.90;;;;;;5044034;28;20962;-78
2021/01/27 00:10:40;;;;;;;13.93;12.73;;;0.40;99.90;;;;;;5049307;28;20450;-79
2021/01/27 00:13:08;;;;;;;13.60;12.70;;;0.50;99.90;;;;;;5051028;28;20438;-80
2021/01/27 00:15:36;;;;;;;13.53;12.40;;;0.50;99.90;;;;;;5046798;28;20461;-79
2021/01/27 00:18:05;;;;;;;13.57;12.57;;;0.50;99.90;;;;;;5050243;28;20456;-80
2021/01/27 00:20:31;;;;;;;13.90;13.00;;;0.50;99.90;;;;;;5046181;28;20453;-79
2021/01/27 00:22:58;;;;;;;14.53;13.37;;;0.40;99.90;;;;;;5050323;28;20457;-79
2021/01/27 00:25:27;;;;;;;15.27;13.97;;;0.40;99.90;;;;;;5042199;28;20548;-79
2021/01/27 00:27:53;;;;;;;14.70;13.40;;;0.40;99.90;;;;;;5049459;28;20456;-80
2021/01/27 00:30:22;;;;;;;15.00;13.60;;;0.40;99.90;;;;;;5047687;28;20450;-79
2021/01/27 00:32:49;;;;;;;14.80;13.67;;;0.30;99.90;;;;;;5048517;28;20809;-79
2021/01/27 00:35:19;;;;;;;15.33;14.13;;;0.30;99.90;;;;;;5048239;28;20470;-80
2021/01/27 00:37:45;;;;;;;16.17;14.80;;;0.30;99.90;;;;;;5048031;28;20430;-79
2021/01/27 00:40:12;;;;;;;15.03;13.57;;;0.30;99.90;;;;;;5052374;28;20786;-80
2021/01/27 00:42:39;;;;;;;15.13;13.93;;;0.30;99.90;;;;;;5047686;28;20451;-80
2021/01/27 00:45:07;;;;;;;15.67;14.37;;;0.30;99.90;;;;;;5045547;28;20485;-79
2021/01/27 00:47:33;;;;;;;15.80;14.40;;;0.30;99.90;;;;;;5052508;28;20442;-79
2021/01/27 00:50:01;;;;;;;15.33;14.00;;;0.20;99.90;;;;;;5048882;28;20536;-80
2021/01/27 00:52:31;;;;;;;15.63;14.10;;;0.20;99.90;;;;;;5048225;28;20478;-80
2021/01/27 00:54:57;;;;;;;15.67;14.20;;;0.20;99.90;;;;;;5058000;28;20516;-79
2021/01/27 00:57:23;;;;;;;14.43;13.33;;;0.10;99.90;;;;;;5047250;28;20450;-79
2021/01/27 00:59:50;;;;;;;15.40;13.73;;;0.10;99.90;;;;;;5054827;28;20915;-80
2021/01/27 01:02:16;;;;;;;15.10;13.87;;;0.10;99.90;;;;;;5053390;28;20437;-79
2021/01/27 01:04:51;;;;;;;15.17;14.13;;;0.00;99.90;;;;;;5053874;28;21028;-80
2021/01/27 01:07:17;;;;;;;14.50;13.30;;;0.00;99.90;;;;;;5047963;28;20434;-79
2021/01/27 01:09:44;;;;;;;15.13;13.43;;;-0.10;99.90;;;;;;5053022;28;20453;-80
2021/01/27 01:12:11;;;;;;;14.63;13.60;;;-0.20;99.90;;;;;;5052355;28;20445;-80
2021/01/27 01:14:37;;;;;;;13.60;12.50;;;-0.20;99.90;;;;;;5051706;28;20454;-80
2021/01/27 01:17:03;;;;;;;14.43;13.23;;;-0.30;99.90;;;;;;5054570;28;20438;-80
2021/01/27 01:19:30;;;;;;;15.37;13.73;;;-0.40;99.90;;;;;;5047465;28;20470;-80
2021/01/27 01:21:56;;;;;;;15.10;13.53;;;-0.40;99.90;;;;;;5053624;28;20446;-80
2021/01/27 01:24:22;;;;;;;15.00;13.80;;;-0.40;99.90;;;;;;5045280;28;20513;-79
2021/01/27 01:26:49;;;;;;;15.67;14.37;;;-0.40;99.90;;;;;;5053275;28;20468;-80
2021/01/27 01:29:17;;;;;;;15.13;13.93;;;-0.30;99.90;;;;;;5052432;28;20438;-79
2021/01/27 01:31:43;;;;;;;15.03;13.87;;;-0.20;99.90;;;;;;5053385;28;20492;-80
2021/01/27 01:34:09;;;;;;;14.33;13.23;;;-0.30;99.90;;;;;;5052465;28;20469;-80
2021/01/27 01:36:35;;;;;;;14.17;13.07;;;-0.20;99.90;;;;;;5049276;28;20468;-80
2021/01/27 01:39:03;;;;;;;14.80;13.70;;;-0.20;99.90;;;;;;5052839;28;20467;-80
2021/01/27 01:41:29;;;;;;;15.13;14.00;;;-0.30;99.90;;;;;;5064629;28;20450;-80
2021/01/27 01:43:56;;;;;;;14.33;13.13;;;-0.30;99.90;;;;;;5045666;28;20494;-79
2021/01/27 01:46:24;;;;;;;15.37;13.97;;;-0.30;99.90;;;;;;5051519;28;20437;-79
2021/01/27 01:48:53;;;;;;;14.90;13.80;;;-0.20;99.90;;;;;;5052720;28;20457;-80
2021/01/27 01:51:23;;;;;;;15.70;14.40;;;-0.20;99.90;;;;;;5046034;28;20856;-80
2021/01/27 01:53:53;;;;;;;15.30;14.10;;;-0.20;99.90;;;;;;5044737;28;20924;-79
2021/01/27 01:56:22;;;;;;;14.30;13.20;;;-0.10;99.90;;;;;;5050258;28;20446;-80
2021/01/27 01:58:53;;;;;;;15.53;13.83;;;-0.10;99.90;;;;;;5052107;28;20430;-79
2021/01/27 02:01:22;;;;;;;15.10;13.87;;;0.00;99.90;;;;;;5050564;28;20974;-82
2021/01/27 02:03:49;;;;;;;15.97;14.33;;;0.00;99.90;;;;;;5048677;28;20442;-79
2021/01/27 02:06:17;;;;;;;15.30;14.10;;;0.00;99.90;;;;;;5052088;28;20433;-80
2021/01/27 02:08:45;;;;;;;15.30;14.10;;;0.00;99.90;;;;;;5046765;28;20464;-81
2021/01/27 02:11:14;;;;;;;14.97;13.87;;;0.00;99.90;;;;;;5047846;28;20931;-80
2021/01/27 02:14:13;;;;;;;15.03;13.87;;;0.00;99.90;;;;;;5049666;28;20438;-79
2021/01/27 02:16:50;;;;;;;15.90;14.23;;;-0.10;99.90;;;;;;5042123;28;20450;-80
2021/01/27 02:20:05;;;;;;;15.30;14.00;;;0.00;99.90;;;;;;5044119;28;20442;-80
2021/01/27 02:22:53;;;;;;;14.53;13.53;;;0.00;99.90;;;;;;5043613;28;20446;-79
2021/01/27 02:25:48;;;;;;;14.40;13.20;;;0.00;99.90;;;;;;5044954;28;20483;-79
2021/01/27 02:28:30;;;;;;;15.30;14.10;;;0.00;99.90;;;;;;5043289;28;20438;-80
2021/01/27 02:31:11;;;;;;;15.40;13.70;;;0.00;99.90;;;;;;5041855;28;20435;-80
2021/01/27 02:34:09;;;;;;;15.13;13.80;;;0.00;99.90;;;;;;5048664;28;20434;-80
2021/01/27 02:36:43;;;;;;;14.43;13.27;;;-0.20;99.90;;;;;;5048531;28;20447;-80
2021/01/27 02:39:14;;;;;;;14.00;12.90;;;-0.20;99.90;;;;;;5041841;28;20879;-79
2021/01/27 02:41:50;;;;;;;14.70;13.43;;;-0.20;99.90;;;;;;5048916;28;20928;-80
2021/01/27 02:44:21;;;;;;;14.53;13.43;;;-0.30;99.90;;;;;;5049902;28;20487;-79
2021/01/27 02:46:51;;;;;;;14.10;13.10;;;-0.30;99.90;;;;;;5047505;28;20453;-80
2021/01/27 02:49:24;;;;;;;14.30;13.13;;;-0.40;99.90;;;;;;5043346;28;20477;-79
2021/01/27 02:51:56;;;;;;;14.40;13.20;;;-0.40;99.90;;;;;;5043340;28;20454;-80
2021/01/27 02:54:25;;;;;;;14.33;13.30;;;-0.50;99.90;;;;;;5043355;28;20495;-79
2021/01/27 02:56:55;;;;;;;13.73;12.70;;;-0.50;99.90;;;;;;5046388;28;20431;-79
2021/01/27 02:59:28;;;;;;;14.10;13.13;;;-0.50;99.90;;;;;;5048002;28;20469;-79
2021/01/27 03:01:59;;;;;;;14.03;13.03;;;-0.50;99.90;;;;;;5047003;28;21111;-79
2021/01/27 03:04:32;;;;;;;14.10;12.80;;;-0.50;99.90;;;;;;5044479;28;20541;-79
2021/01/27 03:07:01;;;;;;;13.83;12.83;;;-0.50;99.90;;;;;;5047514;28;20458;-80
2021/01/27 03:09:40;;;;;;;13.63;12.70;;;-0.60;99.90;;;;;;5042750;28;20438;-79
2021/01/27 03:12:08;;;;;;;13.53;12.53;;;-0.60;99.90;;;;;;5056956;28;20462;-79
2021/01/27 03:14:35;;;;;;;13.40;12.43;;;-0.50;99.90;;;;;;5043979;28;20454;-79
2021/01/27 03:17:04;;;;;;;13.93;12.83;;;-0.50;99.90;;;;;;5043341;28;20462;-80
2021/01/27 03:19:37;;;;;;;13.70;12.63;;;-0.60;99.90;;;;;;5052216;28;20449;-79
2021/01/27 03:22:09;;;;;;;14.00;12.90;;;-0.60;99.90;;;;;;5042878;28;20492;-80
2021/01/27 03:24:42;;;;;;;14.67;13.57;;;-0.50;99.90;;;;;;5059446;28;21006;-79
2021/01/27 03:27:15;;;;;;;14.23;13.23;;;-0.50;99.90;;;;;;5044087;28;20438;-79
2021/01/27 03:29:49;;;;;;;14.20;13.10;;;-0.50;99.90;;;;;;5044063;28;20438;-80
2021/01/27 03:32:20;;;;;;;14.23;13.23;;;-0.40;99.90;;;;;;5044259;28;20439;-79
2021/01/27 03:34:53;;;;;;;14.80;13.63;;;-0.40;99.90;;;;;;5043833;28;20459;-77
2021/01/27 03:37:27;;;;;;;16.10;14.70;;;-0.30;99.90;;;;;;5051973;28;20449;-77
2021/01/27 03:39:59;;;;;;;14.47;13.33;;;-0.30;99.90;;;;;;5050337;28;20429;-77
2021/01/27 03:42:31;;;;;;;14.10;13.03;;;-0.30;99.90;;;;;;5044789;28;20438;-78
2021/01/27 03:45:01;;;;;;;14.57;13.33;;;-0.40;99.90;;;;;;5056439;28;20482;-78
2021/01/27 03:47:33;;;;;;;13.67;12.77;;;-0.40;99.90;;;;;;5070944;28;20429;-78
2021/01/27 03:50:04;;;;;;;14.37;13.27;;;-0.40;99.90;;;;;;5047761;28;20449;-79
2021/01/27 03:52:37;;;;;;;14.40;13.27;;;-0.30;99.90;;;;;;5041230;28;20953;-79
2021/01/27 03:55:13;;;;;;;14.60;13.53;;;-0.30;99.90;;;;;;5045503;28;20474;-78
2021/01/27 03:57:44;;;;;;;15.30;14.20;;;-0.20;99.90;;;;;;5049937;28;20950;-79
2021/01/27 04:00:12;;;;;;;15.77;14.57;;;-0.20;99.90;;;;;;5049200;28;20455;-79
2021/01/27 04:02:41;;;;;;;15.00;13.80;;;-0.20;99.90;;;;;;5050581;28;20475;-79
2021/01/27 04:05:09;;;;;;;15.97;14.67;;;-0.20;99.90;;;;;;5049071;28;20488;-79
2021/01/27 04:07:36;;;;;;;15.77;14.63;;;-0.20;99.90;;;;;;5042608;28;20454;-79
2021/01/27 04:10:03;;;;;;;16.10;14.70;;;-0.20;99.90;;;;;;5052167;28;20436;-79
2021/01/27 04:12:29;;;;;;;15.10;13.87;;;-0.20;99.90;;;;;;5043104;28;20438;-79
2021/01/27 04:14:56;;;;;;;15.60;14.03;;;-0.20;99.90;;;;;;5043475;28;20457;-81
2021/01/27 04:17:27;;;;;;;15.53;14.30;;;-0.20;99.90;;;;;;5046939;28;20472;-77
2021/01/27 04:19:53;;;;;;;14.83;13.73;;;-0.20;99.90;;;;;;5052210;28;20454;-75
2021/01/27 04:22:20;;;;;;;15.47;14.17;;;-0.20;99.90;;;;;;5045957;28;20512;-78
2021/01/27 04:24:47;;;;;;;14.33;13.23;;;-0.20;99.90;;;;;;5061013;28;20465;-77
2021/01/27 04:27:14;;;;;;;15.63;14.23;;;-0.20;99.90;;;;;;5041981;28;20795;-79
2021/01/27 04:29:40;;;;;;;15.00;13.80;;;-0.20;99.90;;;;;;5044926;28;20438;-78
2021/01/27 04:32:06;;;;;;;15.67;14.47;;;-0.20;99.90;;;;;;5050134;28;20553;-79
2021/01/27 04:34:33;;;;;;;16.17;14.80;;;-0.10;99.90;;;;;;5043730;28;20458;-79
2021/01/27 04:37:00;;;;;;;15.27;14.07;;;-0.10;99.90;;;;;;5049272;28;20497;-80
2021/01/27 04:39:26;;;;;;;15.10;13.93;;;-0.10;99.90;;;;;;5043712;28;20446;-78
2021/01/27 04:41:54;;;;;;;15.67;14.40;;;-0.10;99.90;;;;;;5044041;28;20441;-78
2021/01/27 04:44:21;;;;;;;14.47;13.47;;;-0.10;99.90;;;;;;5049176;28;20508;-79
2021/01/27 04:47:01;;;;;;;15.50;14.30;;;-0.10;99.90;;;;;;5045200;28;20536;-78
2021/01/27 04:49:31;;;;;;;15.00;13.80;;;-0.10;99.90;;;;;;5056305;28;20485;-79
2021/01/27 04:52:04;;;;;;;14.40;13.30;;;-0.10;99.90;;;;;;5046512;28;20437;-79
2021/01/27 04:54:57;;;;;;;14.70;13.50;;;0.00;99.90;;;;;;5056085;28;20470;-79
2021/01/27 04:57:42;;;;;;;14.50;13.40;;;-0.10;99.90;;;;;;5046261;28;20496;-78
2021/01/27 05:00:22;;;;;;;14.60;13.30;;;0.00;99.90;;;;;;5047144;28;20454;-78
2021/01/27 05:03:09;;;;;;;14.93;13.73;;;0.00;99.90;;;;;;5052594;28;20938;-79
2021/01/27 05:05:38;;;;;;;13.90;12.90;;;0.10;99.90;;;;;;5066816;28;20477;-79
2021/01/27 05:08:09;;;;;;;14.07;13.07;;;0.10;99.90;;;;;;5058536;28;20450;-79
2021/01/27 05:10:43;;;;;;;13.80;12.90;;;0.10;99.90;;;;;;5044274;28;20512;-79
2021/01/27 05:13:23;;;;;;;13.97;12.87;;;0.10;99.90;;;;;;5047977;28;20460;-79
2021/01/27 05:15:49;;;;;;;14.00;12.87;;;0.10;99.90;;;;;;5042166;28;20504;-79
2021/01/27 05:18:16;;;;;;;13.60;12.60;;;0.10;99.90;;;;;;5042193;28;20443;-79
2021/01/27 05:20:43;;;;;;;14.37;13.20;;;0.10;99.90;;;;;;5044599;28;20443;-78
2021/01/27 05:23:09;;;;;;;13.63;12.57;;;0.00;99.90;;;;;;5046821;28;20442;-79
2021/01/27 05:25:41;;;;;;;14.60;13.10;;;0.00;99.90;;;;;;5044038;28;20500;-79
2021/01/27 05:28:14;;;;;;;14.53;13.43;;;0.00;99.90;;;;;;5049511;28;20441;-79
2021/01/27 05:30:46;;;;;;;14.83;13.73;;;-0.10;99.90;;;;;;5047205;28;20454;-79
2021/01/27 05:33:12;;;;;;;14.67;13.53;;;0.00;99.90;;;;;;5045164;28;20442;-79
2021/01/27 05:35:40;;;;;;;15.77;14.37;;;-0.10;99.90;;;;;;5046427;28;20974;-78
2021/01/27 05:38:26;;;;;;;15.07;13.87;;;0.00;99.90;;;;;;5046436;28;20857;-79
2021/01/27 05:41:02;;;;;;;14.97;13.47;;;0.00;99.90;;;;;;5044585;28;20481;-79
2021/01/27 05:43:29;;;;;;;14.63;13.53;;;0.00;99.90;;;;;;5050071;28;20982;-79
2021/01/27 05:46:09;;;;;;;14.67;13.57;;;0.00;99.90;;;;;;5048835;28;20830;-79
2021/01/27 05:48:44;;;;;;;14.23;13.23;;;0.10;99.90;;;;;;5046118;28;20489;-80
2021/01/27 05:51:26;;;;;;;13.67;12.67;;;0.10;99.90;;;;;;5050034;28;21260;-80
2021/01/27 05:53:53;;;;;;;14.03;13.03;;;0.10;99.90;;;;;;5048942;28;20450;-79
2021/01/27 05:56:20;;;;;;;14.60;13.60;;;0.20;99.90;;;;;;5057825;28;20865;-79
2021/01/27 05:58:57;;;;;;;13.73;12.77;;;0.10;99.90;;;;;;5058905;28;20500;-79
2021/01/27 06:01:31;;;;;;;14.27;13.27;;;0.10;99.90;;;;;;5046129;28;20442;-79
2021/01/27 06:04:01;;;;;;;14.43;13.43;;;0.10;99.90;;;;;;5046928;28;20454;-80
2021/01/27 06:06:31;;;;;;;14.87;13.73;;;0.10;99.90;;;;;;5052274;28;20479;-78
2021/01/27 06:09:00;;;;;;;14.33;13.23;;;0.10;99.90;;;;;;5045859;28;20548;-78
2021/01/27 06:11:26;;;;;;;15.57;14.20;;;0.10;99.90;;;;;;5045939;28;20505;-81
2021/01/27 06:14:07;;;;;;;14.97;13.73;;;0.10;99.90;;;;;;5049680;28;20430;-79
2021/01/27 06:16:41;;;;;;;14.37;13.40;;;0.00;99.90;;;;;;5045526;28;20457;-79
2021/01/27 06:19:15;;;;;;;14.77;13.67;;;0.00;99.90;;;;;;5051930;28;20970;-79
2021/01/27 06:22:06;;;;;;;15.47;14.13;;;0.00;99.90;;;;;;5047375;28;20444;-79
2021/01/27 06:25:02;;;;;;;14.80;13.70;;;0.10;99.90;;;;;;5045960;28;20515;-79
2021/01/27 06:28:04;;;;;;;16.37;14.93;;;0.10;99.90;;;;;;5055472;28;21029;-80
2021/01/27 06:31:00;;;;;;;15.50;14.23;;;0.00;99.90;;;;;;5045844;28;20445;-79
2021/01/27 06:33:37;;;;;;;14.90;13.60;;;0.10;99.90;;;;;;5044600;28;20438;-79
2021/01/27 06:36:14;;;;;;;14.80;13.70;;;0.10;99.90;;;;;;5061300;28;20820;-79
2021/01/27 06:39:11;;;;;;;14.27;13.20;;;0.10;99.90;;;;;;5047561;28;20461;-79
2021/01/27 06:41:55;;;;;;;15.10;14.00;;;0.10;99.90;;;;;;5046790;28;20446;-78
2021/01/27 06:45:00;;;;;;;14.37;13.27;;;0.10;99.90;;;;;;5056213;28;20527;-79
2021/01/27 06:48:05;;;;;;;13.97;13.00;;;0.10;99.90;;;;;;4979283;28;20449;-79
2021/01/27 06:50:59;;;;;;;14.23;13.13;;;0.10;99.90;;;;;;4988780;28;20457;-79
2021/01/27 06:54:12;;;;;;;14.00;12.90;;;0.10;99.90;;;;;;5045601;28;20446;-78
2021/01/27 06:56:53;;;;;;;14.10;13.03;;;0.00;99.90;;;;;;4975544;28;20481;-79
2021/01/27 06:59:50;;;;;;;15.23;14.03;;;0.10;99.90;;;;;;4990041;28;20981;-79
2021/01/27 07:02:58;;;;;;;14.50;13.40;;;0.10;99.90;;;;;;5029716;28;20461;-79
2021/01/27 07:05:57;;;;;;;14.63;13.17;;;0.10;99.90;;;;;;5049497;28;20486;-79
2021/01/27 07:08:36;;;;;;;14.23;13.20;;;0.10;99.90;;;;;;5033066;28;20450;-79
2021/01/27 07:11:07;;;;;;;14.17;13.07;;;0.10;99.90;;;;;;5050294;28;20938;-79
2021/01/27 07:13:58;;;;;;;14.70;13.50;;;0.10;99.90;;;;;;5047066;28;20446;-80
2021/01/27 07:16:39;;;;;;;14.93;13.63;;;0.10;99.90;;;;;;5043671;28;20446;-79
2021/01/27 07:19:38;;;;;;;14.00;13.00;;;0.10;99.90;;;;;;5044099;28;20507;-79
2021/01/27 07:22:13;;;;;;;15.07;13.67;;;0.20;99.90;;;;;;5038015;28;20454;-79
2021/01/27 07:24:47;;;;;;;17.00;15.30;;;0.20;99.90;;;;;;5043452;28;21055;-79
2021/01/27 07:27:18;;;;;;;16.10;14.50;;;0.20;99.90;;;;;;5048801;28;20445;-79
2021/01/27 07:29:48;;;;;;;16.20;14.70;;;0.30;99.90;;;;;;5043658;28;20511;-79
2021/01/27 07:32:20;;;;;;;15.90;14.40;;;0.40;99.90;;;;;;5043874;28;20450;-79
2021/01/27 07:34:52;;;;;;;14.97;13.67;;;0.40;99.90;;;;;;5051234;28;20995;-79
2021/01/27 07:37:25;;;;;;;14.70;13.37;;;0.50;99.90;;;;;;5050449;28;20438;-79
2021/01/27 07:39:59;;;;;;;14.30;13.10;;;0.50;99.90;;;;;;5046539;28;20971;-79
2021/01/27 07:42:29;;;;;;;14.10;13.00;;;0.60;99.90;;;;;;5041686;28;20450;-79
2021/01/27 07:44:58;;;;;;;14.33;13.30;;;0.60;99.90;;;;;;5045574;28;20547;-79
2021/01/27 07:47:49;;;;;;;13.80;12.70;;;0.70;99.90;;;;;;5044555;28;20426;-79
2021/01/27 07:50:18;;;;;;;13.47;12.47;;;0.70;99.90;;;;;;5051111;28;20458;-79
2021/01/27 07:52:58;;;;;;;14.60;13.40;;;0.70;99.90;;;;;;5044675;28;20430;-79
2021/01/27 07:55:32;;;;;;;12.80;11.87;;;0.70;99.90;;;;;;5042984;28;20496;-79
2021/01/27 07:58:05;;;;;;;14.10;13.10;;;0.80;99.90;;;;;;5039572;28;20443;-79
2021/01/27 08:00:38;;;;;;;13.10;12.10;;;0.80;99.90;;;;;;5047189;28;20443;-78
2021/01/27 08:03:26;;;;;;;13.77;12.43;;;0.80;99.90;;;;;;5061667;28;20459;-79
2021/01/27 08:06:00;;;;;;;13.93;12.83;;;0.90;99.90;;;;;;5036022;28;20474;-79
2021/01/27 08:08:28;;;;;;;14.10;12.80;;;0.90;99.90;;;;;;5039207;28;20454;-79
2021/01/27 08:10:55;;;;;;;13.10;12.20;;;0.90;99.90;;;;;;5031367;28;20544;-79
2021/01/27 08:13:37;;;;;;;14.50;13.27;;;0.90;99.90;;;;;;5031052;28;20455;-78
2021/01/27 08:16:08;;;;;;;12.97;12.03;;;0.90;99.90;;;;;;5033279;28;20439;-79
2021/01/27 08:18:35;;;;;;;13.83;12.63;;;1.00;99.90;;;;;;5042737;28;20476;-79
2021/01/27 08:21:25;;;;;;;13.33;12.23;;;1.00;99.90;;;;;;5042650;28;20797;-78
2021/01/27 08:23:53;;;;;;;13.67;12.57;;;1.10;99.90;;;;;;5044525;28;20443;-79
2021/01/27 08:26:48;;;;;;;12.97;12.07;;;1.10;99.90;;;;;;5048461;28;20474;-79
2021/01/27 08:29:26;;;;;;;13.43;12.53;;;1.20;99.90;;;;;;5048934;28;20472;-78
2021/01/27 08:32:22;;;;;;;13.10;12.20;;;1.20;99.90;;;;;;5049577;28;20457;-79
2021/01/27 08:34:49;;;;;;;12.90;12.10;;;1.20;99.90;;;;;;5043736;28;20504;-79
2021/01/27 08:37:21;;;;;;;13.60;12.60;;;1.20;99.90;;;;;;5048666;28;20465;-79
2021/01/27 08:39:49;;;;;;;13.37;12.37;;;1.20;99.90;;;;;;5045028;28;20453;-79
2021/01/27 08:42:22;;;;;;;14.10;13.00;;;1.30;99.90;;;;;;5055643;28;20966;-79
2021/01/27 08:44:48;;;;;;;13.97;12.80;;;1.30;99.90;;;;;;5043185;28;20470;-79
2021/01/27 08:47:20;;;;;;;13.90;13.00;;;1.30;99.90;;;;;;5043613;28;20957;-79
2021/01/27 08:49:53;;;;;;;13.63;12.63;;;1.40;99.90;;;;;;5043762;28;20447;-79
2021/01/27 08:52:41;;;;;;;13.93;12.83;;;1.40;99.90;;;;;;5052008;28;20440;-78
2021/01/27 08:55:39;;;;;;;14.77;13.57;;;1.50;99.90;;;;;;5033735;28;20880;-79
2021/01/27 08:58:39;;;;;;;14.30;13.10;;;1.50;99.90;;;;;;5039240;28;20458;-79
2021/01/27 09:01:09;;;;;;;14.37;13.27;;;1.50;99.90;;;;;;5047529;28;20832;-79
2021/01/27 09:03:59;;;;;;;13.97;12.87;;;1.60;99.90;;;;;;5049038;28;20438;-79
2021/01/27 09:06:49;;;;;;;14.60;13.23;;;1.60;99.90;;;;;;5047240;28;20513;-79
2021/01/27 09:09:27;;;;;;;13.60;12.50;;;1.70;99.90;;;;;;5045984;28;20452;-79
2021/01/27 09:12:00;;;;;;;13.00;12.10;;;1.60;99.90;;;;;;5054573;28;20510;-79
2021/01/27 09:14:26;;;;;;;13.97;12.90;;;1.70;99.90;;;;;;5070540;28;20513;-79
2021/01/27 09:16:53;;;;;;;13.63;12.63;;;1.70;99.90;;;;;;5070870;28;20946;-79
2021/01/27 09:19:21;;;;;;;13.77;12.67;;;1.70;99.90;;;;;;5054182;28;20829;-79
2021/01/27 09:22:06;;;;;;;13.23;12.20;;;1.80;99.90;;;;;;5070937;28;20886;-79
2021/01/27 09:24:38;;;;;;;13.53;12.53;;;1.80;99.90;;;;;;5055505;28;20838;-79
2021/01/27 09:27:16;;;;;;;14.13;13.07;;;1.80;99.90;;;;;;5071601;28;20444;-79
2021/01/27 09:29:42;;;;;;;14.13;13.03;;;1.80;99.90;;;;;;5054037;28;20443;-79
2021/01/27 09:32:15;;;;;;;13.97;12.97;;;1.80;99.90;;;;;;5052226;28;20475;-79
2021/01/27 09:34:41;;;;;;;14.53;13.47;;;1.80;99.90;;;;;;5055445;28;20518;-79
2021/01/27 09:37:12;;;;;;;13.90;12.77;;;1.70;99.90;;;;;;5049807;28;20822;-78
2021/01/27 09:39:42;;;;;;;13.60;12.60;;;1.80;99.90;;;;;;5049262;28;20446;-78
2021/01/27 09:42:18;;;;;;;14.13;13.07;;;1.70;99.90;;;;;;5047222;28;20454;-79
2021/01/27 09:44:47;;;;;;;14.07;12.97;;;1.70;99.90;;;;;;5053528;28;21074;-79
2021/01/27 09:47:15;;;;;;;13.63;12.63;;;1.70;99.90;;;;;;5045837;28;20457;-79
2021/01/27 09:49:46;;;;;;;14.67;13.47;;;1.70;99.90;;;;;;5063156;28;20454;-79
2021/01/27 09:52:14;;;;;;;14.30;13.23;;;1.70;99.90;;;;;;5053684;28;20450;-79
2021/01/27 09:54:43;;;;;;;13.93;12.77;;;1.70;99.90;;;;;;5050265;28;20475;-80
2021/01/27 09:57:11;;;;;;;13.93;12.73;;;1.70;99.90;;;;;;5047733;28;20463;-79
2021/01/27 09:59:39;;;;;;;13.53;12.33;;;1.70;99.90;;;;;;5046255;28;20518;-79
2021/01/27 10:02:10;;;;;;;12.97;11.97;;;1.70;99.90;;;;;;5045712;28;20459;-79
2021/01/27 10:04:38;;;;;;;12.50;11.70;;;1.70;99.90;;;;;;5051068;28;20473;-79
2021/01/27 10:07:14;;;;;;;12.47;11.60;;;1.60;99.90;;;;;;5042352;28;20450;-79
2021/01/27 10:09:45;;;;;;;13.10;12.00;;;1.70;99.90;;;;;;5045578;28;20449;-79
2021/01/27 10:12:18;;;;;;;12.40;11.53;;;1.60;99.90;;;;;;5045973;28;20963;-79
2021/01/27 10:14:48;;;;;;;12.53;11.57;;;1.60;99.90;;;;;;5044162;28;21000;-79
2021/01/27 10:17:15;;;;;;;12.93;12.13;;;1.70;99.90;;;;;;5049790;28;20447;-79
2021/01/27 10:19:47;;;;;;;13.07;12.07;;;1.70;99.90;;;;;;5044375;28;20483;-79
2021/01/27 10:22:14;;;;;;;13.40;12.30;;;1.70;99.90;;;;;;5051451;28;20544;-79
2021/01/27 10:24:47;;;;;;;12.87;12.07;;;1.70;99.90;;;;;;5043282;28;20462;-78
2021/01/27 10:27:20;;;;;;;13.30;12.30;;;1.70;99.90;;;;;;5044201;28;20450;-79
2021/01/27 10:29:48;;;;;;;13.20;12.00;;;1.70;99.90;;;;;;5044593;28;20454;-79
2021/01/27 10:32:21;;;;;;;12.37;11.57;;;1.90;99.90;;;;;;5044909;28;20451;-79
2021/01/27 10:34:49;;;;;;;12.67;11.70;;;2.00;99.90;;;;;;5048679;28;20470;-80
2021/01/27 10:37:36;;;;;;;12.73;11.90;;;2.00;99.90;;;;;;5045289;28;20447;-79
2021/01/27 10:40:14;;;;;;;11.40;10.50;;;2.10;99.90;;;;;;5045024;28;20935;-79
2021/01/27 10:42:44;;;;;;;11.77;10.87;;;2.20;99.90;;;;;;5055997;28;20449;-79
2021/01/27 10:45:30;;;;;;;11.63;10.83;;;2.40;99.90;;;;;;5061138;28;20482;-79
2021/01/27 10:48:05;;;;;;;12.43;11.50;;;2.50;99.90;;;;;;5050321;28;20456;-78
2021/01/27 10:50:31;;;;;;;13.13;12.20;;;2.60;99.90;;;;;;5061997;28;20521;-79
2021/01/27 10:52:59;;;;;;;12.97;12.17;;;2.50;99.90;;;;;;5053304;28;20434;-79
2021/01/27 10:55:31;;;;;;;12.27;11.50;;;2.50;99.90;;;;;;5044847;28;20478;-80
2021/01/27 10:58:08;;;;;;;12.70;11.80;;;2.60;99.90;;;;;;5036648;28;20442;-79
2021/01/27 11:00:36;;;;;;;13.13;12.10;;;2.60;99.90;;;;;;5040580;28;20453;-79
2021/01/27 11:03:03;;;;;;;11.90;11.00;;;2.50;99.90;;;;;;5049171;28;20507;-79
2021/01/27 11:05:30;;;;;;;12.40;11.53;;;2.50;99.90;;;;;;5049893;28;20484;-79
2021/01/27 11:07:56;;;;;;;12.60;11.77;;;2.50;99.90;;;;;;5050397;28;20437;-79
2021/01/27 11:10:23;;;;;;;14.07;12.93;;;2.50;99.90;;;;;;5042728;28;20572;-79
2021/01/27 11:12:50;;;;;;;13.10;12.13;;;2.50;99.90;;;;;;5045074;28;20433;-78
2021/01/27 11:15:16;;;;;;;13.30;12.20;;;2.50;99.90;;;;;;5045303;28;20451;-79
2021/01/27 11:17:44;;;;;;;12.90;11.83;;;2.40;99.90;;;;;;5047102;28;20448;-80
2021/01/27 11:20:11;;;;;;;12.73;11.83;;;2.40;99.90;;;;;;5048026;28;20459;-79
2021/01/27 11:22:37;;;;;;;13.17;12.10;;;2.40;99.90;;;;;;5045433;28;20487;-79
2021/01/27 11:25:05;;;;;;;12.20;11.30;;;2.40;99.90;;;;;;5045112;28;20480;-78
2021/01/27 11:27:31;;;;;;;12.50;11.60;;;2.40;99.90;;;;;;5049503;28;20445;-78
2021/01/27 11:29:57;;;;;;;12.00;11.10;;;2.40;99.90;;;;;;5041111;28;20963;-78
2021/01/27 11:32:24;;;;;;;11.70;10.80;;;2.30;99.90;;;;;;5048730;28;20498;-79
2021/01/27 11:34:51;;;;;;;12.23;11.23;;;2.40;99.90;;;;;;5044395;28;20463;-79
2021/01/27 11:37:17;;;;;;;12.00;11.10;;;2.60;99.90;;;;;;5051348;28;20440;-79
2021/01/27 11:39:43;;;;;;;11.53;10.73;;;2.70;99.90;;;;;;5051116;28;20442;-79
2021/01/27 11:42:10;;;;;;;11.83;11.03;;;2.70;99.90;;;;;;5045447;28;20505;-79
2021/01/27 11:44:36;;;;;;;12.10;11.17;;;2.80;99.90;;;;;;5048433;28;20858;-79
2021/01/27 11:47:02;;;;;;;12.00;11.20;;;2.80;99.90;;;;;;5041014;28;20524;-79
2021/01/27 11:49:29;;;;;;;12.00;11.10;;;2.80;99.90;;;;;;5045755;28;20520;-79
2021/01/27 11:51:56;;;;;;;11.47;10.57;;;2.80;99.90;;;;;;5048206;28;20473;-79
2021/01/27 11:54:23;;;;;;;11.60;10.80;;;2.90;99.90;;;;;;5044748;28;20968;-79
2021/01/27 11:56:49;;;;;;;11.87;10.87;;;2.90;99.90;;;;;;5045175;28;20444;-78
2021/01/27 11:59:15;;;;;;;11.67;10.83;;;2.90;99.90;;;;;;5046955;28;20441;-79
2021/01/27 12:01:42;;;;;;;11.63;10.87;;;3.00;99.90;;;;;;5045890;28;20898;-78
2021/01/27 12:04:08;;;;;;;11.93;11.03;;;3.00;99.90;;;;;;5049919;28;20462;-78
2021/01/27 12:06:35;;;;;;;12.03;11.13;;;3.10;99.90;;;;;;5051356;28;20894;-79
2021/01/27 12:09:02;;;;;;;12.70;11.60;;;3.10;99.90;;;;;;5048753;28;20838;-79
2021/01/27 12:11:28;;;;;;;12.33;11.43;;;3.00;99.90;;;;;;5056946;28;20445;-79
2021/01/27 12:13:55;;;;;;;13.03;11.80;;;3.00;99.90;;;;;;5045643;28;20811;-78
2021/01/27 12:16:21;;;;;;;12.73;11.53;;;2.90;99.90;;;;;;5043023;28;20477;-79
2021/01/27 12:18:47;;;;;;;12.80;11.90;;;2.90;99.90;;;;;;5045044;28;20446;-79
2021/01/27 12:21:14;;;;;;;12.03;11.23;;;2.80;99.90;;;;;;5048087;28;20827;-79
2021/01/27 12:23:40;;;;;;;11.60;10.80;;;2.80;99.90;;;;;;5045337;28;20544;-79
2021/01/27 12:26:07;;;;;;;13.30;12.20;;;2.80;99.90;;;;;;5042712;28;21080;-78
2021/01/27 12:28:33;;;;;;;12.50;11.47;;;2.80;99.90;;;;;;5041985;28;20492;-79
2021/01/27 12:31:00;;;;;;;12.83;11.57;;;2.80;99.90;;;;;;5048082;28;20453;-79
2021/01/27 12:33:26;;;;;;;12.17;11.27;;;2.80;99.90;;;;;;5044802;28;20430;-78
2021/01/27 12:35:52;;;;;;;12.47;11.47;;;2.70;99.90;;;;;;5046089;28;20519;-79
2021/01/27 12:38:19;;;;;;;12.27;11.37;;;2.80;99.90;;;;;;5053139;28;20531;-79
2021/01/27 12:40:47;;;;;;;12.97;11.80;;;2.70;99.90;;;;;;5053337;28;20444;-79
2021/01/27 12:43:14;;;;;;;13.23;12.13;;;2.70;99.90;;;;;;5062486;28;20449;-81
2021/01/27 12:45:41;;;;;;;12.90;11.90;;;2.60;99.90;;;;;;5061819;28;20472;-78
2021/01/27 12:48:07;;;;;;;12.73;11.83;;;2.70;99.90;;;;;;5054489;28;20445;-78
2021/01/27 12:50:33;;;;;;;12.53;11.63;;;2.70;99.90;;;;;;5050876;28;20449;-79
2021/01/27 12:52:59;;;;;;;12.43;11.53;;;2.80;99.90;;;;;;5056822;28;20432;-78
2021/01/27 12:55:26;;;;;;;12.47;11.67;;;2.90;99.90;;;;;;5053222;28;20446;-79
2021/01/27 12:57:52;;;;;;;12.73;11.83;;;2.90;99.90;;;;;;5052647;28;20446;-78
2021/01/27 13:00:22;;;;;;;12.80;11.90;;;2.90;99.90;;;;;;5055553;28;20207;-81